Time;durP1;ratioP1;P1;durP2;ratioP2;P2;SDS_P1;SDS_P2;PMS_P1;PMS_P2;Temp;Humidity;BMP_temperature;BMP_pressure;BME280_temperature;BME280_humidity;BME280_pressure;Samples;Min_cycle;Max_cycle;Signal;HPM_P1;HPM_P2
2021/12/18 00:02:08;;;;;;;25.55;10.32;;;7.80;94.50;;;;;;6152516;23;20032;-78
2021/12/18 00:04:34;;;;;;;27.27;10.32;;;7.80;94.60;;;;;;6153602;23;20501;-78
2021/12/18 00:07:01;;;;;;;23.25;9.65;;;7.80;94.60;;;;;;6153638;23;20022;-77
2021/12/18 00:09:30;;;;;;;30.08;10.57;;;7.80;94.70;;;;;;6126923;23;20537;-78
2021/12/18 00:11:58;;;;;;;28.38;10.77;;;7.80;94.70;;;;;;6127296;23;20133;-79
2021/12/18 00:14:26;;;;;;;26.95;10.60;;;7.80;94.70;;;;;;6153067;23;20026;-78
2021/12/18 00:16:55;;;;;;;28.92;11.57;;;7.80;94.70;;;;;;6153186;23;20105;-78
2021/12/18 00:19:25;;;;;;;27.05;11.25;;;7.80;94.60;;;;;;6153489;23;20053;-79
2021/12/18 00:21:53;;;;;;;27.23;10.77;;;7.80;94.70;;;;;;6151744;23;20877;-78
2021/12/18 00:24:21;;;;;;;29.98;10.70;;;7.80;94.70;;;;;;6127148;23;20161;-78
2021/12/18 00:26:47;;;;;;;26.55;10.73;;;7.80;94.70;;;;;;6152850;23;20065;-79
2021/12/18 00:29:14;;;;;;;24.15;9.45;;;7.80;94.70;;;;;;6152951;23;20021;-78
2021/12/18 00:31:41;;;;;;;28.23;10.65;;;7.80;94.80;;;;;;6153531;23;20032;-78
2021/12/18 00:34:08;;;;;;;25.15;9.63;;;7.80;94.70;;;;;;6152952;23;20882;-78
2021/12/18 00:36:34;;;;;;;33.70;10.65;;;7.80;94.70;;;;;;6153041;23;20489;-78
2021/12/18 00:39:01;;;;;;;31.08;10.23;;;7.80;94.70;;;;;;6153318;23;20026;-79
2021/12/18 00:44:02;;;;;;;23.17;10.00;;;7.80;94.60;;;;;;6153781;23;20054;-78
2021/12/18 00:46:40;;;;;;;23.23;9.25;;;7.80;94.50;;;;;;6152881;23;21178;-78
2021/12/18 00:49:10;;;;;;;22.38;9.88;;;7.80;94.60;;;;;;6127234;23;20026;-78
2021/12/18 00:51:36;;;;;;;25.23;11.15;;;7.80;94.50;;;;;;6152286;23;20030;-78
2021/12/18 00:54:04;;;;;;;24.08;10.57;;;7.80;94.60;;;;;;6152804;23;20101;-78
2021/12/18 00:56:31;;;;;;;24.48;10.48;;;7.80;94.70;;;;;;6153457;23;20022;-78
2021/12/18 00:58:58;;;;;;;25.98;10.32;;;7.80;94.70;;;;;;6153401;23;20047;-78
2021/12/18 01:01:28;;;;;;;30.98;11.82;;;7.80;94.70;;;;;;6127665;23;20462;-78
2021/12/18 01:03:56;;;;;;;32.63;13.32;;;7.80;94.70;;;;;;6127504;23;20060;-78
2021/12/18 01:06:24;;;;;;;33.00;12.95;;;7.80;94.70;;;;;;6153343;23;20033;-78
2021/12/18 01:08:54;;;;;;;27.20;11.18;;;7.80;94.70;;;;;;6152752;23;20030;-78
2021/12/18 01:14:25;;;;;;;23.83;8.95;;;7.80;94.70;;;;;;6153362;23;20541;-78
2021/12/18 01:22:43;;;;;;;23.85;10.55;;;7.80;94.70;;;;;;6150356;23;20022;-78
2021/12/18 01:24:59;;;;;;;24.95;9.23;;;7.80;94.80;;;;;;6150592;23;20057;-78
2021/12/18 01:27:26;;;;;;;21.00;8.57;;;7.80;94.70;;;;;;6153279;23;20022;-78
2021/12/18 01:29:53;;;;;;;18.40;7.60;;;7.80;94.70;;;;;;6152281;23;20455;-78
2021/12/18 01:32:20;;;;;;;18.55;7.25;;;7.80;94.70;;;;;;6152307;23;20022;-78
2021/12/18 01:34:46;;;;;;;20.10;7.85;;;7.80;94.70;;;;;;6152845;23;20034;-79
2021/12/18 01:37:13;;;;;;;16.48;7.28;;;7.80;94.70;;;;;;6152337;23;20059;-78
2021/12/18 01:39:42;;;;;;;19.05;7.93;;;7.80;94.60;;;;;;6153061;23;20450;-79
2021/12/18 01:52:54;;;;;;;17.88;7.82;;;7.70;94.70;;;;;;6152213;23;20454;-81
2021/12/18 01:55:26;;;;;;;17.83;7.55;;;7.70;94.70;;;;;;6156054;23;20024;-80
2021/12/18 01:57:58;;;;;;;18.42;7.78;;;7.70;94.70;;;;;;6156554;23;20034;-78
2021/12/18 02:00:28;;;;;;;20.27;7.88;;;7.70;94.70;;;;;;6156968;23;20050;-78
2021/12/18 02:02:55;;;;;;;18.42;6.75;;;7.80;94.60;;;;;;6130453;23;20029;-78
2021/12/18 02:05:22;;;;;;;17.10;6.93;;;7.70;94.50;;;;;;6154234;23;20077;-79
2021/12/18 02:07:49;;;;;;;16.95;7.22;;;7.70;94.50;;;;;;6149380;23;20113;-79
2021/12/18 02:10:22;;;;;;;17.58;7.10;;;7.70;94.50;;;;;;6152249;23;20469;-79
2021/12/18 02:20:50;;;;;;;17.42;7.05;;;7.70;94.50;;;;;;6152406;23;20097;-79
2021/12/18 02:23:17;;;;;;;19.52;7.47;;;7.80;94.30;;;;;;6127097;23;20801;-80
2021/12/18 02:25:47;;;;;;;22.85;7.50;;;7.70;94.30;;;;;;6127170;23;20085;-77
2021/12/18 02:28:20;;;;;;;18.95;7.45;;;7.70;94.30;;;;;;6126983;23;20167;-81
2021/12/18 02:30:49;;;;;;;24.60;8.18;;;7.70;94.40;;;;;;6156839;23;20026;-78
2021/12/18 02:33:16;;;;;;;20.80;8.00;;;7.80;94.40;;;;;;6155431;23;20048;-79
2021/12/18 02:35:53;;;;;;;23.10;8.65;;;7.80;94.50;;;;;;6131186;23;21340;-78
2021/12/18 02:38:55;;;;;;;21.90;8.27;;;7.70;94.50;;;;;;6129705;23;20077;-78
2021/12/18 02:41:38;;;;;;;18.48;7.80;;;7.80;94.50;;;;;;6154404;23;20109;-79
2021/12/18 02:44:11;;;;;;;19.70;7.50;;;7.70;94.30;;;;;;6154303;23;20030;-78
2021/12/18 02:46:40;;;;;;;19.13;7.90;;;7.70;94.40;;;;;;6130494;23;20777;-78
2021/12/18 02:49:14;;;;;;;22.27;8.02;;;7.70;94.40;;;;;;6156426;23;20057;-79
2021/12/18 02:51:41;;;;;;;20.55;7.18;;;7.70;94.60;;;;;;6157285;23;20113;-79
2021/12/18 02:54:09;;;;;;;19.73;7.80;;;7.70;94.60;;;;;;6151499;23;20569;-79
2021/12/18 02:56:36;;;;;;;20.52;7.40;;;7.70;94.50;;;;;;6153292;23;20785;-79
2021/12/18 02:59:08;;;;;;;18.40;7.07;;;7.70;94.50;;;;;;6154712;23;20039;-79
2021/12/18 03:01:39;;;;;;;15.85;6.55;;;7.60;94.40;;;;;;6157948;23;20030;-79
2021/12/18 03:04:17;;;;;;;19.35;6.82;;;7.60;94.40;;;;;;6157786;23;20025;-79
2021/12/18 03:06:51;;;;;;;17.25;6.70;;;7.70;94.50;;;;;;6157731;23;20036;-79
2021/12/18 03:25:32;;;;;;;15.70;5.85;;;7.50;94.40;;;;;;6152752;23;20506;-79
2021/12/18 03:28:00;;;;;;;15.70;5.80;;;7.50;94.30;;;;;;6152860;23;20637;-79
2021/12/18 03:30:27;;;;;;;16.92;5.82;;;7.50;94.30;;;;;;6152794;23;20026;-79
2021/12/18 03:32:54;;;;;;;17.98;6.05;;;7.50;94.40;;;;;;6152935;23;20506;-79
2021/12/18 03:35:21;;;;;;;16.88;6.25;;;7.40;94.40;;;;;;6153365;23;20057;-79
2021/12/18 03:37:48;;;;;;;17.92;6.45;;;7.50;94.40;;;;;;6152710;23;20060;-79
2021/12/18 03:40:21;;;;;;;17.50;6.63;;;7.40;94.40;;;;;;6152925;23;20452;-80
2021/12/18 03:42:49;;;;;;;18.85;6.35;;;7.40;94.50;;;;;;6126621;23;20569;-79
2021/12/18 03:45:18;;;;;;;21.35;6.03;;;7.40;94.60;;;;;;6126189;23;20742;-79
2021/12/18 03:47:47;;;;;;;22.60;6.85;;;7.40;94.70;;;;;;6152840;23;20034;-79
2021/12/18 03:50:13;;;;;;;27.67;7.50;;;7.40;94.80;;;;;;6152200;23;20817;-79
2021/12/18 03:52:40;;;;;;;24.95;6.82;;;7.40;94.90;;;;;;6152964;23;20026;-79
2021/12/18 03:55:07;;;;;;;31.27;7.28;;;7.40;95.00;;;;;;6153192;23;20487;-79
2021/12/18 03:57:37;;;;;;;20.42;6.82;;;7.40;94.90;;;;;;6152907;23;20040;-79
2021/12/18 04:00:07;;;;;;;30.23;7.55;;;7.40;95.00;;;;;;6152847;23;20097;-78
2021/12/18 04:02:34;;;;;;;25.75;6.95;;;7.40;95.00;;;;;;6152755;23;20036;-79
2021/12/18 04:05:00;;;;;;;26.80;6.45;;;7.30;95.10;;;;;;6153519;23;20022;-79
2021/12/18 04:07:27;;;;;;;24.70;6.70;;;7.30;95.10;;;;;;6152927;23;20026;-78
2021/12/18 04:09:56;;;;;;;27.00;5.90;;;7.30;95.10;;;;;;6152822;23;20713;-79
2021/12/18 04:12:23;;;;;;;28.17;6.00;;;7.20;95.10;;;;;;6152837;23;20534;-79
2021/12/18 04:14:50;;;;;;;15.15;4.03;;;7.20;95.30;;;;;;6152775;23;20575;-78
2021/12/18 04:17:16;;;;;;;20.95;4.70;;;7.10;95.10;;;;;;6152827;23;20582;-79
2021/12/18 04:19:43;;;;;;;16.80;5.10;;;7.10;95.10;;;;;;6151214;23;20101;-79
2021/12/18 04:22:10;;;;;;;24.75;4.85;;;7.00;95.10;;;;;;6151120;23;20018;-79
2021/12/18 04:24:38;;;;;;;16.80;4.70;;;7.00;95.20;;;;;;6152871;23;20105;-78
2021/12/18 04:27:05;;;;;;;24.70;4.88;;;7.00;95.30;;;;;;6153554;23;20026;-78
2021/12/18 04:29:32;;;;;;;16.10;3.95;;;7.00;95.40;;;;;;6152949;23;20054;-80
2021/12/18 04:31:58;;;;;;;13.90;4.20;;;7.00;95.30;;;;;;6153364;23;20025;-78
2021/12/18 04:34:25;;;;;;;14.18;3.65;;;7.00;95.30;;;;;;6152938;23;20106;-78
2021/12/18 04:36:52;;;;;;;18.42;4.03;;;6.90;95.30;;;;;;6153039;23;20455;-79
2021/12/18 04:39:18;;;;;;;21.10;4.15;;;6.90;95.40;;;;;;6152282;23;20081;-80
2021/12/18 04:41:51;;;;;;;15.45;3.88;;;6.90;95.50;;;;;;6152926;23;20606;-79
2021/12/18 04:44:21;;;;;;;14.05;3.92;;;6.90;95.60;;;;;;6152228;23;20021;-78
2021/12/18 04:46:50;;;;;;;22.98;3.92;;;6.90;95.60;;;;;;6152962;23;20122;-79
2021/12/18 04:49:17;;;;;;;16.70;3.38;;;6.80;95.40;;;;;;6152949;23;20112;-79
2021/12/18 04:51:45;;;;;;;12.20;3.08;;;6.80;95.40;;;;;;6151099;23;20089;-78
2021/12/18 04:54:14;;;;;;;11.27;3.10;;;6.80;95.40;;;;;;6152535;23;20044;-79
2021/12/18 04:56:41;;;;;;;13.10;2.90;;;6.70;95.40;;;;;;6152505;23;20030;-78
2021/12/18 04:59:08;;;;;;;19.25;3.50;;;6.70;95.40;;;;;;6152746;23;20021;-80
2021/12/18 05:01:37;;;;;;;11.85;3.38;;;6.70;95.40;;;;;;6152195;23;20029;-78
2021/12/18 05:04:08;;;;;;;19.85;3.60;;;6.70;95.40;;;;;;6124739;23;21117;-79
2021/12/18 05:06:38;;;;;;;15.77;3.67;;;6.70;95.40;;;;;;6153369;23;20054;-80
2021/12/18 05:09:05;;;;;;;30.77;3.58;;;6.70;95.40;;;;;;6152610;23;20075;-79
2021/12/18 05:11:36;;;;;;;21.02;3.92;;;6.70;95.50;;;;;;6128287;23;20030;-79
2021/12/18 05:14:06;;;;;;;23.75;4.13;;;6.70;95.60;;;;;;6153191;23;20026;-79
2021/12/18 05:16:34;;;;;;;50.90;4.20;;;6.70;95.60;;;;;;6152390;23;20050;-79
2021/12/18 05:19:03;;;;;;;33.67;3.80;;;6.60;95.50;;;;;;6151365;23;20026;-78
2021/12/18 05:21:29;;;;;;;29.83;3.25;;;6.60;95.60;;;;;;6126662;23;20022;-78
2021/12/18 05:23:56;;;;;;;20.02;3.40;;;6.60;95.60;;;;;;6151258;23;20512;-79
2021/12/18 05:26:24;;;;;;;30.63;3.25;;;6.60;95.50;;;;;;6152618;23;20033;-79
2021/12/18 05:28:50;;;;;;;17.98;3.22;;;6.60;95.70;;;;;;6152079;23;20026;-79
2021/12/18 05:31:17;;;;;;;10.02;2.97;;;6.60;95.60;;;;;;6151277;23;20021;-79
2021/12/18 05:33:48;;;;;;;46.85;3.65;;;6.60;95.70;;;;;;6152451;23;20030;-79
2021/12/18 05:39:14;;;;;;;15.55;2.95;;;6.60;95.60;;;;;;6032361;23;20027;-78
2021/12/18 05:41:41;;;;;;;27.52;3.00;;;6.50;95.40;;;;;;6032752;23;20044;-80
2021/12/18 05:44:08;;;;;;;12.07;2.90;;;6.50;95.40;;;;;;6033022;23;20028;-78
2021/12/18 05:46:35;;;;;;;10.25;2.55;;;6.50;95.50;;;;;;6032344;23;20779;-79
2021/12/18 05:49:02;;;;;;;9.63;2.60;;;6.50;95.60;;;;;;6032716;23;20107;-79
2021/12/18 05:51:31;;;;;;;10.30;2.38;;;6.50;95.50;;;;;;6032542;23;20118;-79
2021/12/18 05:53:58;;;;;;;8.48;2.45;;;6.50;95.50;;;;;;6030791;23;20047;-78
2021/12/18 05:56:25;;;;;;;11.73;2.78;;;6.50;95.60;;;;;;6031587;23;20080;-79
2021/12/18 05:58:52;;;;;;;21.00;3.30;;;6.50;95.60;;;;;;6032136;23;20028;-79
2021/12/18 06:01:21;;;;;;;16.10;2.83;;;6.50;95.60;;;;;;6032365;23;20550;-80
2021/12/18 06:03:48;;;;;;;30.45;3.70;;;6.50;95.50;;;;;;6032041;23;20127;-80
2021/12/18 06:06:15;;;;;;;16.98;3.47;;;6.50;95.60;;;;;;6030397;23;20031;-79
2021/12/18 06:08:42;;;;;;;14.32;3.00;;;6.50;95.70;;;;;;6032951;23;20614;-79
2021/12/18 06:11:13;;;;;;;24.35;4.10;;;6.50;95.70;;;;;;6032777;23;20028;-79
2021/12/18 06:13:41;;;;;;;13.68;3.08;;;6.50;95.70;;;;;;6032871;23;20138;-78
2021/12/18 06:16:08;;;;;;;32.70;2.65;;;6.40;95.50;;;;;;6113900;23;20030;-79
2021/12/18 06:18:37;;;;;;;44.65;3.00;;;6.40;95.60;;;;;;6151971;23;20129;-79
2021/12/18 06:21:04;;;;;;;26.13;2.80;;;6.40;95.60;;;;;;6152306;23;20109;-79
2021/12/18 06:23:30;;;;;;;20.92;3.08;;;6.40;95.60;;;;;;6152402;23;20042;-79
2021/12/18 06:25:58;;;;;;;26.52;2.63;;;6.30;95.60;;;;;;6151855;23;20058;-79
2021/12/18 06:28:25;;;;;;;17.55;2.80;;;6.30;95.50;;;;;;6152139;23;20026;-78
2021/12/18 06:30:55;;;;;;;19.50;2.83;;;6.30;95.60;;;;;;6151254;23;20073;-78
2021/12/18 06:33:22;;;;;;;25.33;2.28;;;6.20;95.40;;;;;;6150432;23;20032;-78
2021/12/18 06:35:49;;;;;;;21.25;2.50;;;6.20;95.40;;;;;;6150664;23;20097;-79
2021/12/18 06:38:16;;;;;;;7.22;1.90;;;6.10;95.40;;;;;;6152983;23;20077;-78
2021/12/18 06:40:43;;;;;;;5.88;1.58;;;6.10;95.40;;;;;;6153483;23;20423;-79
2021/12/18 06:43:10;;;;;;;4.82;1.50;;;6.00;95.00;;;;;;6127044;23;20030;-79
2021/12/18 06:45:46;;;;;;;12.20;2.00;;;5.90;94.80;;;;;;6154007;23;20030;-79
2021/12/18 06:48:13;;;;;;;27.05;2.40;;;5.70;94.80;;;;;;6153589;23;20028;-78
2021/12/18 06:50:40;;;;;;;8.20;2.05;;;5.60;94.70;;;;;;6155140;23;20101;-78
2021/12/18 06:53:06;;;;;;;28.08;2.45;;;5.60;94.90;;;;;;6128785;23;20103;-78
2021/12/18 06:55:34;;;;;;;26.50;2.30;;;5.50;94.90;;;;;;6127056;23;20025;-78
2021/12/18 06:58:01;;;;;;;30.83;2.50;;;5.50;95.00;;;;;;6157147;23;20018;-79
2021/12/18 07:00:28;;;;;;;37.55;3.10;;;5.50;95.20;;;;;;6158285;23;20014;-78
2021/12/18 07:02:56;;;;;;;11.48;2.38;;;5.40;95.20;;;;;;6157727;23;20052;-79
2021/12/18 07:05:23;;;;;;;74.05;3.65;;;5.40;95.30;;;;;;6158752;23;20026;-77
2021/12/18 07:07:52;;;;;;;27.50;2.60;;;5.40;95.30;;;;;;6133030;23;20028;-78
2021/12/18 07:10:19;;;;;;;33.05;2.80;;;5.40;95.20;;;;;;6159703;23;20021;-79
2021/12/18 07:12:46;;;;;;;16.20;2.40;;;5.30;95.00;;;;;;6160107;23;20025;-78
2021/12/18 07:15:13;;;;;;;13.60;2.55;;;5.30;95.10;;;;;;6159885;23;20036;-79
2021/12/18 07:17:40;;;;;;;26.23;2.92;;;5.20;95.10;;;;;;6157793;23;20097;-79
2021/12/18 07:20:08;;;;;;;10.38;2.50;;;5.20;95.20;;;;;;6156526;23;20025;-78
2021/12/18 07:22:36;;;;;;;41.85;2.90;;;5.20;95.20;;;;;;6157211;23;20022;-78
2021/12/18 07:25:06;;;;;;;32.30;2.95;;;5.20;95.00;;;;;;6155463;23;20803;-78
2021/12/18 07:27:33;;;;;;;27.95;3.85;;;5.10;95.10;;;;;;6128827;23;20231;-79
2021/12/18 07:29:59;;;;;;;14.02;3.28;;;5.10;95.20;;;;;;6135102;23;20026;-78
2021/12/18 07:32:27;;;;;;;18.45;3.28;;;5.10;95.10;;;;;;6153856;23;20018;-77
2021/12/18 07:34:54;;;;;;;9.00;2.30;;;5.10;95.30;;;;;;6154704;23;20030;-78
2021/12/18 07:37:23;;;;;;;6.50;2.65;;;5.00;95.20;;;;;;6154674;23;20758;-78
2021/12/18 07:39:52;;;;;;;25.90;3.00;;;5.00;95.30;;;;;;6152684;23;20030;-79
2021/12/18 07:42:19;;;;;;;26.65;2.75;;;5.00;95.10;;;;;;6151244;23;20109;-79
2021/12/18 07:44:46;;;;;;;10.25;2.88;;;5.00;95.30;;;;;;6154144;23;20114;-79
2021/12/18 07:47:13;;;;;;;10.93;3.20;;;5.00;95.50;;;;;;6159403;23;20108;-80
2021/12/18 07:49:40;;;;;;;9.68;3.22;;;5.00;95.50;;;;;;6159862;23;20101;-78
2021/12/18 07:52:06;;;;;;;18.02;3.63;;;5.00;95.50;;;;;;6157857;23;20078;-78
2021/12/18 07:54:34;;;;;;;11.13;3.45;;;5.00;95.50;;;;;;6158978;23;20033;-80
2021/12/18 07:57:01;;;;;;;15.70;3.63;;;5.00;95.60;;;;;;6159648;23;20627;-79
2021/12/18 07:59:27;;;;;;;9.82;3.55;;;5.00;95.70;;;;;;6155593;23;20036;-78
2021/12/18 08:01:54;;;;;;;11.52;3.35;;;5.00;95.70;;;;;;6155819;23;20157;-78
2021/12/18 08:04:21;;;;;;;16.38;2.70;;;5.10;95.80;;;;;;6152589;23;20135;-78
2021/12/18 08:06:50;;;;;;;7.88;2.40;;;5.10;95.60;;;;;;6153251;23;20101;-78
2021/12/18 08:09:17;;;;;;;10.82;2.28;;;5.00;95.60;;;;;;6154497;23;20022;-78
2021/12/18 08:11:44;;;;;;;19.85;2.55;;;5.00;95.60;;;;;;6154258;23;20053;-78
2021/12/18 08:14:11;;;;;;;6.30;2.47;;;5.00;95.60;;;;;;6154165;23;20029;-78
2021/12/18 08:16:37;;;;;;;13.90;2.38;;;5.00;95.50;;;;;;6151998;23;20048;-78
2021/12/18 08:19:04;;;;;;;6.93;2.38;;;5.00;95.60;;;;;;6153015;23;20055;-80
2021/12/18 08:21:31;;;;;;;9.32;2.45;;;5.10;95.60;;;;;;6153426;23;20026;-78
2021/12/18 08:23:57;;;;;;;8.75;3.67;;;5.10;95.70;;;;;;6153761;23;20080;-78
2021/12/18 08:26:25;;;;;;;8.45;3.28;;;5.10;95.60;;;;;;6153972;23;20022;-79
2021/12/18 08:28:51;;;;;;;11.38;3.30;;;5.10;95.80;;;;;;6154109;23;20028;-79
2021/12/18 08:31:20;;;;;;;5.32;2.38;;;5.10;95.70;;;;;;6153752;23;20022;-79
2021/12/18 08:33:49;;;;;;;4.82;2.30;;;5.10;95.50;;;;;;6125753;23;20080;-78
2021/12/18 08:36:17;;;;;;;7.70;2.08;;;5.10;95.40;;;;;;6151037;23;20014;-79
2021/12/18 08:38:47;;;;;;;5.53;2.10;;;5.00;95.30;;;;;;6126011;23;20093;-79
2021/12/18 08:41:16;;;;;;;10.48;2.17;;;5.10;95.40;;;;;;6152987;23;20022;-79
2021/12/18 08:43:43;;;;;;;10.50;2.63;;;5.00;95.60;;;;;;6125586;23;20094;-79
2021/12/18 08:46:13;;;;;;;16.08;2.50;;;5.10;95.70;;;;;;6152326;23;20443;-78
2021/12/18 08:48:40;;;;;;;6.60;2.35;;;5.10;95.70;;;;;;6154067;23;20054;-79
2021/12/18 08:51:07;;;;;;;12.38;2.45;;;5.10;95.70;;;;;;6152724;23;20694;-79
2021/12/18 08:53:35;;;;;;;13.13;2.05;;;5.20;95.80;;;;;;6124840;23;20032;-79
2021/12/18 08:56:07;;;;;;;15.07;2.00;;;5.20;95.60;;;;;;6152165;23;20104;-78
2021/12/18 08:58:34;;;;;;;5.85;2.30;;;5.10;95.40;;;;;;6153495;23;20742;-78
2021/12/18 09:01:04;;;;;;;18.15;2.40;;;5.10;95.30;;;;;;6125048;23;20018;-79
2021/12/18 09:03:31;;;;;;;7.15;2.53;;;5.10;95.50;;;;;;6125918;23;20041;-79
2021/12/18 09:06:01;;;;;;;10.70;2.40;;;5.10;95.30;;;;;;6152851;23;20054;-79
2021/12/18 09:08:28;;;;;;;9.88;2.38;;;5.10;95.30;;;;;;6152794;23;20109;-79
2021/12/18 09:10:55;;;;;;;9.77;2.70;;;5.20;95.30;;;;;;6153855;23;20093;-79
2021/12/18 09:13:22;;;;;;;69.28;3.40;;;5.20;95.40;;;;;;6153317;23;20050;-79
2021/12/18 09:15:49;;;;;;;15.23;2.72;;;5.10;95.10;;;;;;6153143;23;20018;-79
2021/12/18 09:18:16;;;;;;;28.73;3.40;;;5.20;95.20;;;;;;6153239;23;20022;-79
2021/12/18 09:20:44;;;;;;;30.13;3.40;;;5.10;95.20;;;;;;6153832;23;20113;-79
2021/12/18 09:23:17;;;;;;;19.52;2.80;;;5.10;95.30;;;;;;6127381;23;20030;-79
2021/12/18 09:25:46;;;;;;;29.20;3.45;;;5.20;95.40;;;;;;6152038;23;20105;-79
2021/12/18 09:28:14;;;;;;;14.77;3.47;;;5.20;95.30;;;;;;6127212;23;20061;-79
2021/12/18 09:30:43;;;;;;;17.45;2.95;;;5.30;95.30;;;;;;6152675;23;20054;-79
2021/12/18 09:33:12;;;;;;;22.73;3.40;;;5.20;95.10;;;;;;6153392;23;20734;-78
2021/12/18 09:35:40;;;;;;;8.10;3.35;;;5.20;95.10;;;;;;6151792;23;20407;-79
2021/12/18 09:38:07;;;;;;;6.25;2.75;;;5.20;95.30;;;;;;6125609;23;20675;-79
2021/12/18 09:40:35;;;;;;;3.95;1.73;;;5.30;95.30;;;;;;6152897;23;20022;-78
2021/12/18 09:43:02;;;;;;;3.67;1.70;;;5.20;95.00;;;;;;6124922;23;20018;-78
2021/12/18 09:45:29;;;;;;;3.42;1.50;;;5.20;94.90;;;;;;6127169;23;20022;-78
2021/12/18 09:47:56;;;;;;;3.42;1.67;;;5.20;94.80;;;;;;6153104;23;20118;-79
2021/12/18 09:50:26;;;;;;;4.00;1.70;;;5.20;94.90;;;;;;6152835;23;20073;-79
2021/12/18 09:52:53;;;;;;;3.95;1.75;;;5.20;94.90;;;;;;6151705;23;20048;-79
2021/12/18 09:55:20;;;;;;;4.85;2.20;;;5.20;94.80;;;;;;6151741;23;20522;-78
2021/12/18 09:57:49;;;;;;;4.55;1.92;;;5.30;94.90;;;;;;6126430;23;20026;-79
2021/12/18 10:00:25;;;;;;;6.43;2.20;;;5.30;94.90;;;;;;6151371;23;20108;-79
2021/12/18 10:02:53;;;;;;;14.13;2.55;;;5.40;95.00;;;;;;6153746;23;20033;-78
2021/12/18 10:05:36;;;;;;;9.70;2.45;;;5.40;94.90;;;;;;6151044;23;20059;-78
2021/12/18 10:08:16;;;;;;;7.80;2.65;;;5.40;94.90;;;;;;6126818;23;20050;-78
2021/12/18 10:11:17;;;;;;;7.30;2.88;;;5.40;94.90;;;;;;6125527;23;20018;-78
2021/12/18 10:13:55;;;;;;;7.18;2.60;;;5.50;95.10;;;;;;6124853;23;20026;-79
2021/12/18 10:16:24;;;;;;;6.15;2.33;;;5.50;94.90;;;;;;6152411;23;20025;-79
2021/12/18 10:18:51;;;;;;;6.05;2.50;;;5.50;94.50;;;;;;6152439;23;20463;-79
2021/12/18 10:21:21;;;;;;;12.57;2.53;;;5.50;94.70;;;;;;6151299;23;20092;-78
2021/12/18 10:23:52;;;;;;;9.30;2.30;;;5.50;94.70;;;;;;6127772;23;20888;-78
2021/12/18 10:26:37;;;;;;;10.35;2.70;;;5.50;94.40;;;;;;6127321;23;20029;-79
2021/12/18 10:29:06;;;;;;;7.30;2.58;;;5.50;94.60;;;;;;6155118;23;20030;-78
2021/12/18 10:31:42;;;;;;;16.50;2.70;;;5.50;94.40;;;;;;6154238;23;20077;-79
2021/12/18 10:34:26;;;;;;;30.63;3.03;;;5.40;94.10;;;;;;6151183;23;20101;-79
2021/12/18 10:37:22;;;;;;;11.90;4.00;;;5.50;94.50;;;;;;6152654;23;20484;-78
2021/12/18 10:39:55;;;;;;;6.20;2.97;;;5.50;94.70;;;;;;6150717;23;20033;-78
2021/12/18 10:42:42;;;;;;;27.15;3.47;;;5.50;94.50;;;;;;6150867;23;20475;-79
2021/12/18 10:45:25;;;;;;;7.38;3.72;;;5.40;94.20;;;;;;6154334;23;20752;-79
2021/12/18 10:48:03;;;;;;;7.72;3.60;;;5.50;94.50;;;;;;6153199;23;20100;-78
2021/12/18 10:50:49;;;;;;;7.28;3.20;;;5.50;94.90;;;;;;6153908;23;20022;-78
2021/12/18 10:53:21;;;;;;;6.57;3.13;;;5.50;94.50;;;;;;6149670;23;20026;-79
2021/12/18 10:55:54;;;;;;;5.50;2.90;;;5.50;94.40;;;;;;6150815;23;20030;-78
2021/12/18 10:58:21;;;;;;;24.40;4.00;;;5.50;94.50;;;;;;6152417;23;20032;-77
2021/12/18 11:00:55;;;;;;;11.82;3.25;;;5.50;94.60;;;;;;6150285;23;20470;-79
2021/12/18 11:03:27;;;;;;;8.25;3.13;;;5.50;94.40;;;;;;6153608;23;20030;-78
2021/12/18 11:06:07;;;;;;;23.42;3.60;;;5.50;94.40;;;;;;6150124;23;20033;-78
2021/12/18 11:08:47;;;;;;;15.25;3.60;;;5.50;94.70;;;;;;6149974;23;20029;-77
2021/12/18 11:14:11;;;;;;;16.98;5.60;;;5.50;94.40;;;;;;6154101;23;20113;-78
2021/12/18 11:16:39;;;;;;;19.08;5.55;;;5.50;94.40;;;;;;6152086;23;20041;-77
2021/12/18 11:19:13;;;;;;;14.52;3.55;;;5.50;94.50;;;;;;6151001;23;20814;-78
2021/12/18 11:21:46;;;;;;;16.65;3.13;;;5.50;94.50;;;;;;6153340;23;20025;-78
2021/12/18 11:24:15;;;;;;;8.05;3.40;;;5.50;94.40;;;;;;6149834;23;20033;-78
2021/12/18 11:27:05;;;;;;;6.35;3.58;;;5.50;94.20;;;;;;6152822;23;20815;-78
2021/12/18 11:29:35;;;;;;;8.48;3.80;;;5.50;94.40;;;;;;6152813;23;20025;-78
2021/12/18 11:32:02;;;;;;;6.38;3.50;;;5.60;94.70;;;;;;6125613;23;20570;-79
2021/12/18 11:34:29;;;;;;;5.90;2.90;;;5.60;94.70;;;;;;6151960;23;20026;-79
2021/12/18 11:36:59;;;;;;;9.38;3.97;;;5.70;94.40;;;;;;6151479;23;20082;-79
2021/12/18 11:39:31;;;;;;;7.25;4.00;;;5.70;94.50;;;;;;6150494;23;20025;-78
2021/12/18 11:41:59;;;;;;;5.07;2.47;;;5.80;94.50;;;;;;6150424;23;20077;-79
2021/12/18 11:44:31;;;;;;;2.95;1.70;;;5.80;94.20;;;;;;6149549;23;20101;-79
2021/12/18 11:47:23;;;;;;;4.03;2.00;;;5.80;93.50;;;;;;6150980;23;20117;-78
2021/12/18 11:49:54;;;;;;;5.20;2.05;;;5.90;93.50;;;;;;6153834;23;20722;-79
2021/12/18 11:52:21;;;;;;;4.05;2.17;;;5.90;93.60;;;;;;6154023;23;20026;-78
2021/12/18 11:55:00;;;;;;;3.70;2.05;;;6.00;93.60;;;;;;6126900;23;20026;-79
2021/12/18 11:57:51;;;;;;;3.75;2.20;;;6.00;93.90;;;;;;6148770;23;20550;-78
2021/12/18 12:00:23;;;;;;;4.97;2.38;;;6.00;92.70;;;;;;6153459;23;20034;-79
2021/12/18 12:02:53;;;;;;;3.70;2.03;;;6.00;92.80;;;;;;6153109;23;20029;-79
2021/12/18 12:05:31;;;;;;;4.50;2.25;;;6.00;92.70;;;;;;6153174;23;20029;-78
2021/12/18 12:08:17;;;;;;;4.32;2.50;;;6.10;92.90;;;;;;6152235;23;20531;-78
2021/12/18 12:11:15;;;;;;;6.03;2.40;;;6.10;93.20;;;;;;6152522;23;20018;-78
2021/12/18 12:14:03;;;;;;;4.90;2.40;;;6.20;93.30;;;;;;6153654;23;20026;-79
2021/12/18 12:17:04;;;;;;;4.63;2.50;;;6.20;93.00;;;;;;6153638;23;20030;-78
2021/12/18 12:19:34;;;;;;;4.55;2.35;;;6.20;93.40;;;;;;6152698;23;20097;-79
2021/12/18 12:22:05;;;;;;;3.88;2.30;;;6.30;92.90;;;;;;6153091;23;20018;-78
2021/12/18 12:24:58;;;;;;;3.50;2.20;;;6.20;92.60;;;;;;6126557;23;20030;-79
2021/12/18 12:27:25;;;;;;;4.45;2.60;;;6.20;92.10;;;;;;6127018;23;20030;-79
2021/12/18 12:29:56;;;;;;;4.72;2.70;;;6.20;92.10;;;;;;6152684;23;20036;-78
2021/12/18 12:32:31;;;;;;;4.63;2.63;;;6.10;91.60;;;;;;6153498;23;20462;-79
2021/12/18 12:35:07;;;;;;;4.10;2.03;;;6.10;92.20;;;;;;6152530;23;20105;-78
2021/12/18 12:37:42;;;;;;;4.20;2.25;;;6.20;92.50;;;;;;6152369;23;20032;-79
2021/12/18 12:40:14;;;;;;;3.08;1.80;;;6.20;92.60;;;;;;6153179;23;20030;-78
2021/12/18 12:43:15;;;;;;;4.78;2.00;;;6.30;92.30;;;;;;6153209;23;20077;-78
2021/12/18 12:45:45;;;;;;;6.40;2.22;;;6.30;92.40;;;;;;6123111;23;20026;-78
2021/12/18 12:48:21;;;;;;;4.45;2.10;;;6.40;92.70;;;;;;6151219;23;20414;-78
2021/12/18 12:50:56;;;;;;;3.38;2.03;;;6.50;92.70;;;;;;6125629;23;20034;-79
2021/12/18 12:53:47;;;;;;;4.03;2.07;;;6.50;92.50;;;;;;6151441;23;20825;-78
2021/12/18 12:56:16;;;;;;;2.95;1.73;;;6.50;92.50;;;;;;6127454;23;20112;-78
2021/12/18 12:58:43;;;;;;;3.65;2.00;;;6.50;92.10;;;;;;6151868;23;20122;-79
2021/12/18 13:01:10;;;;;;;3.15;1.80;;;6.60;92.20;;;;;;6153005;23;20554;-78
2021/12/18 13:03:48;;;;;;;4.07;2.33;;;6.50;91.70;;;;;;6151163;23;20029;-79
2021/12/18 13:06:21;;;;;;;4.85;2.35;;;6.60;92.30;;;;;;6152913;23;20082;-79
2021/12/18 13:08:49;;;;;;;4.90;2.42;;;6.70;92.60;;;;;;6151625;23;20101;-80
2021/12/18 13:11:25;;;;;;;3.53;2.17;;;6.70;91.80;;;;;;6128051;23;20063;-78
2021/12/18 13:13:53;;;;;;;7.07;2.50;;;6.70;92.30;;;;;;6152758;23;20025;-79
2021/12/18 13:16:22;;;;;;;4.30;2.92;;;6.70;92.10;;;;;;6153271;23;20400;-79
2021/12/18 13:18:56;;;;;;;7.70;2.55;;;6.70;92.20;;;;;;6126795;23;20032;-79
2021/12/18 13:21:31;;;;;;;5.72;2.78;;;6.70;92.20;;;;;;6153109;23;20037;-79
2021/12/18 13:24:00;;;;;;;5.15;2.40;;;6.70;92.60;;;;;;6127194;23;20029;-79
2021/12/18 13:26:34;;;;;;;4.32;2.50;;;6.80;92.30;;;;;;6153312;23;20056;-79
2021/12/18 13:29:08;;;;;;;3.97;2.30;;;6.70;91.90;;;;;;6152275;23;20026;-78
2021/12/18 13:31:49;;;;;;;4.40;2.50;;;6.70;92.10;;;;;;6153031;23;20825;-79
2021/12/18 13:34:32;;;;;;;3.85;2.28;;;6.80;92.40;;;;;;6151361;23;20821;-79
2021/12/18 13:37:04;;;;;;;3.35;2.00;;;6.80;91.70;;;;;;6150754;23;20072;-79
2021/12/18 13:39:40;;;;;;;3.45;2.10;;;6.80;91.20;;;;;;6127591;23;20898;-79
2021/12/18 13:42:12;;;;;;;4.22;2.25;;;6.80;91.80;;;;;;6127089;23;20026;-79
2021/12/18 13:44:53;;;;;;;4.57;2.42;;;6.80;91.80;;;;;;6151137;23;20026;-79
2021/12/18 13:47:33;;;;;;;3.47;2.10;;;6.80;91.30;;;;;;6152874;23;20459;-79
2021/12/18 13:50:18;;;;;;;3.80;2.30;;;6.80;92.00;;;;;;6150434;23;20057;-78
2021/12/18 13:53:09;;;;;;;5.00;2.80;;;6.90;92.10;;;;;;6126943;23;20029;-79
2021/12/18 13:55:43;;;;;;;3.92;2.40;;;6.80;91.80;;;;;;6151222;23;20037;-79
2021/12/18 13:58:24;;;;;;;4.43;2.60;;;6.80;92.20;;;;;;6152504;23;20025;-79
2021/12/18 14:01:13;;;;;;;6.40;2.97;;;6.80;92.10;;;;;;6128640;23;20029;-78